Terminal Aerodrome Forecast
Issued by NWS Shreveport, LA

Home | Current Version | Previous Version | Text Only | Print | Product List | Glossary On
Versions: 1 2 3 4 5 6 7 8 9 10 11 12 13 14 15 16 17 18 19 20 21 22 23 24 25
000
FTUS44 KSHV 050900 AAA
TAFTYR
TAF AMD
KTYR 050943Z 0510/0606 01015KT 5SM -SN BR BKN008
     FM051300 04012G20KT P6SM BKN025
     FM051800 03010KT P6SM SKC
     FM060000 VRB04KT P6SM SKC=

USA.gov is the U.S. government's official web portal to all federal, state and local government web resources and services.